Terminal Aerodrome Forecast
Issued by NWS Pueblo, CO

Home | Current Version | Previous Version | Text Only | Print | Product List | Glossary On
Versions: 1 2 3 4 5 6 7 8 9 10 11 12 13 14 15 16 17 18 19 20 21 22 23 24 25 26 27 28 29 30 31 32 33 34 35 36 37 38 39
000
FTUS45 KPUB 211747
TAFPUB
TAF
KPUB 211747Z 2118/2218 35008KT P6SM VCSH SCT025 BKN035
     FM212000 06010KT P6SM VCSH SCT025 BKN035
     FM212200 11008KT P6SM VCSH SCT025 BKN035
     FM220200 10005KT P6SM SCT040 BKN060
     FM220600 VRB03KT 1/2SM FG VV001
     FM221600 VRB05KT P6SM SCT020=

USA.gov is the U.S. government's official web portal to all federal, state and local government web resources and services.